Time;durP1;ratioP1;P1;durP2;ratioP2;P2;SDS_P1;SDS_P2;PMS_P1;PMS_P2;Temp;Humidity;BMP_temperature;BMP_pressure;BME280_temperature;BME280_humidity;BME280_pressure;Samples;Min_cycle;Max_cycle;Signal;HPM_P1;HPM_P2
2021/07/23 00:01:33;;;;;;;7.57;4.28;;;;;;;;;;5013662;28;20030;-86
2021/07/23 00:03:59;;;;;;;10.73;4.75;;;;;;;;;;5011988;28;20032;-86
2021/07/23 00:06:26;;;;;;;9.63;4.53;;;;;;;;;;5079723;28;20037;-86
2021/07/23 00:08:52;;;;;;;12.10;4.90;;;;;;;;;;5079713;28;20026;-86
2021/07/23 00:11:18;;;;;;;10.30;4.88;;;;;;;;;;5083234;28;20056;-86
2021/07/23 00:13:44;;;;;;;15.18;4.95;;;;;;;;;;5015510;28;20034;-86
2021/07/23 00:16:11;;;;;;;9.93;4.57;;;;;;;;;;5083526;28;20022;-86
2021/07/23 00:18:37;;;;;;;10.80;4.70;;;;;;;;;;5016605;28;20041;-86
2021/07/23 00:21:03;;;;;;;10.45;4.53;;;;;;;;;;5020258;28;20030;-86
2021/07/23 00:23:30;;;;;;;9.35;4.70;;;;;;;;;;5083781;28;20026;-86
2021/07/23 00:25:56;;;;;;;6.63;4.03;;;;;;;;;;5083032;28;20030;-86
2021/07/23 00:28:22;;;;;;;12.52;4.53;;;;;;;;;;5086065;28;20026;-86
2021/07/23 00:30:49;;;;;;;8.23;4.20;;;;;;;;;;5085984;28;20354;-88
2021/07/23 00:33:15;;;;;;;7.72;4.32;;;;;;;;;;5087581;28;20566;-87
2021/07/23 00:35:42;;;;;;;9.55;4.60;;;;;;;;;;5097996;28;20372;-87
2021/07/23 00:38:08;;;;;;;13.10;4.63;;;;;;;;;;5099082;28;20418;-86
2021/07/23 00:40:34;;;;;;;8.93;4.63;;;;;;;;;;5096481;28;20462;-86
2021/07/23 00:43:01;;;;;;;14.05;4.40;;;;;;;;;;5098506;28;20024;-87
2021/07/23 00:45:27;;;;;;;8.65;4.85;;;;;;;;;;5097346;28;20024;-89
2021/07/23 00:48:01;;;;;;;10.98;4.53;;;;;;;;;;5096982;28;20507;-87
2021/07/23 00:50:28;;;;;;;9.02;4.68;;;;;;;;;;5097267;28;20455;-88
2021/07/23 00:52:55;;;;;;;9.52;4.00;;;;;;;;;;5096984;28;20115;-86
2021/07/23 00:55:21;;;;;;;11.02;5.07;;;;;;;;;;5098133;28;20033;-86
2021/07/23 00:57:48;;;;;;;8.18;4.78;;;;;;;;;;5096060;28;20032;-86
2021/07/23 01:00:14;;;;;;;7.82;4.68;;;;;;;;;;5096918;28;20392;-87
2021/07/23 01:02:40;;;;;;;10.27;4.72;;;;;;;;;;5096986;28;20059;-87
2021/07/23 01:05:07;;;;;;;8.35;4.63;;;;;;;;;;5097732;28;20056;-87
2021/07/23 01:07:35;;;;;;;11.05;4.80;;;;;;;;;;5096979;28;20028;-88
2021/07/23 01:10:02;;;;;;;9.55;4.72;;;;;;;;;;5096652;28;20487;-87
2021/07/23 01:12:29;;;;;;;8.70;4.93;;;;;;;;;;5097415;28;20081;-86
2021/07/23 01:14:56;;;;;;;8.90;4.80;;;;;;;;;;5098321;28;20024;-87
2021/07/23 01:17:22;;;;;;;11.30;5.28;;;;;;;;;;5097593;28;20028;-86
2021/07/23 01:19:54;;;;;;;11.90;4.80;;;;;;;;;;5098114;28;20047;-86
2021/07/23 01:22:21;;;;;;;7.55;4.55;;;;;;;;;;5095100;28;20028;-87
2021/07/23 01:24:48;;;;;;;10.30;4.63;;;;;;;;;;5096160;28;20140;-86
2021/07/23 01:27:15;;;;;;;6.72;4.20;;;;;;;;;;5096258;28;20055;-86
2021/07/23 01:29:42;;;;;;;8.32;5.00;;;;;;;;;;5095717;28;20044;-87
2021/07/23 01:32:08;;;;;;;8.82;4.97;;;;;;;;;;5095967;28;20028;-88
2021/07/23 01:34:34;;;;;;;9.10;4.50;;;;;;;;;;5096110;28;20028;-87
2021/07/23 01:37:00;;;;;;;11.05;5.03;;;;;;;;;;5031008;28;20050;-84
2021/07/23 01:39:27;;;;;;;8.82;4.82;;;;;;;;;;5081453;28;20037;-86
2021/07/23 01:41:54;;;;;;;8.68;4.85;;;;;;;;;;5082625;28;20022;-87
2021/07/23 01:44:20;;;;;;;10.30;5.30;;;;;;;;;;5013934;28;20450;-86
2021/07/23 01:46:46;;;;;;;9.07;5.00;;;;;;;;;;5081973;28;20022;-87
2021/07/23 01:49:12;;;;;;;9.70;5.47;;;;;;;;;;5014033;28;20385;-87
2021/07/23 01:51:38;;;;;;;10.63;5.28;;;;;;;;;;5081995;28;20029;-87
2021/07/23 01:54:05;;;;;;;11.85;5.25;;;;;;;;;;5014025;28;20022;-87
2021/07/23 01:56:31;;;;;;;9.27;4.80;;;;;;;;;;5014361;28;20072;-86
2021/07/23 01:58:58;;;;;;;9.27;5.13;;;;;;;;;;5081127;28;20026;-86
2021/07/23 02:01:24;;;;;;;11.80;5.60;;;;;;;;;;5082020;28;20099;-87
2021/07/23 02:03:50;;;;;;;9.43;4.65;;;;;;;;;;5081877;28;20025;-86
2021/07/23 02:06:17;;;;;;;9.70;5.15;;;;;;;;;;5014315;28;20033;-87
2021/07/23 02:08:43;;;;;;;7.97;4.82;;;;;;;;;;5081580;28;20021;-86
2021/07/23 02:11:09;;;;;;;8.18;4.90;;;;;;;;;;5081357;28;20021;-86
2021/07/23 02:13:35;;;;;;;10.13;5.07;;;;;;;;;;5080949;28;20030;-86
2021/07/23 02:16:06;;;;;;;8.48;4.95;;;;;;;;;;5081539;28;20029;-87
2021/07/23 02:18:33;;;;;;;12.20;5.57;;;;;;;;;;5081647;28;20545;-87
2021/07/23 02:20:59;;;;;;;11.82;5.13;;;;;;;;;;5013607;28;20057;-88
2021/07/23 02:23:25;;;;;;;9.57;5.18;;;;;;;;;;5013691;28;20033;-86
2021/07/23 02:25:52;;;;;;;9.38;5.47;;;;;;;;;;5013730;28;20079;-88
2021/07/23 02:28:18;;;;;;;11.10;5.43;;;;;;;;;;5080734;28;20030;-86
2021/07/23 02:30:44;;;;;;;10.35;5.22;;;;;;;;;;5081090;28;20026;-87
2021/07/23 02:33:11;;;;;;;9.27;5.35;;;;;;;;;;5013475;28;20038;-86
2021/07/23 02:35:37;;;;;;;9.00;4.85;;;;;;;;;;5094611;28;20048;-86
2021/07/23 02:38:03;;;;;;;9.57;5.38;;;;;;;;;;5095219;28;20036;-86
2021/07/23 02:40:29;;;;;;;10.98;5.88;;;;;;;;;;5095928;28;20020;-86
2021/07/23 02:42:56;;;;;;;10.25;5.38;;;;;;;;;;5095764;28;20024;-86
2021/07/23 02:45:22;;;;;;;8.68;5.28;;;;;;;;;;5094629;28;20077;-87
2021/07/23 02:47:49;;;;;;;11.55;5.50;;;;;;;;;;5094717;28;20024;-86
2021/07/23 02:50:15;;;;;;;12.82;5.40;;;;;;;;;;5096889;28;20453;-87
2021/07/23 02:52:41;;;;;;;9.80;5.45;;;;;;;;;;5096286;28;20388;-87
2021/07/23 02:55:08;;;;;;;12.77;5.75;;;;;;;;;;5096255;28;20422;-85
2021/07/23 02:57:34;;;;;;;10.30;5.90;;;;;;;;;;5094528;28;20039;-87
2021/07/23 03:00:01;;;;;;;13.90;5.80;;;;;;;;;;5096423;28;20035;-86
2021/07/23 03:02:27;;;;;;;9.65;5.45;;;;;;;;;;5094603;28;20484;-85
2021/07/23 03:04:53;;;;;;;11.77;6.05;;;;;;;;;;5094755;28;20027;-85
2021/07/23 03:07:19;;;;;;;11.32;5.70;;;;;;;;;;5094577;28;20123;-86
2021/07/23 03:09:46;;;;;;;9.35;5.60;;;;;;;;;;5094582;28;20453;-85
2021/07/23 03:12:13;;;;;;;9.93;5.55;;;;;;;;;;5095812;28;20035;-85
2021/07/23 03:14:39;;;;;;;9.02;5.20;;;;;;;;;;5093809;28;20496;-86
2021/07/23 03:17:08;;;;;;;11.63;6.65;;;;;;;;;;5094318;28;20090;-87
2021/07/23 03:19:35;;;;;;;11.02;6.15;;;;;;;;;;5094790;28;20032;-86
2021/07/23 03:22:01;;;;;;;8.82;5.50;;;;;;;;;;5095564;28;20419;-85
2021/07/23 03:24:29;;;;;;;12.18;5.85;;;;;;;;;;5094399;28;20031;-85
2021/07/23 03:26:55;;;;;;;9.30;5.53;;;;;;;;;;5094035;28;20043;-85
2021/07/23 03:29:21;;;;;;;10.45;5.82;;;;;;;;;;5093349;28;20020;-86
2021/07/23 03:31:48;;;;;;;10.57;5.97;;;;;;;;;;5094137;28;20032;-85
2021/07/23 03:34:14;;;;;;;11.00;6.22;;;;;;;;;;5093905;28;20031;-85
2021/07/23 03:36:40;;;;;;;11.68;5.95;;;;;;;;;;5093981;28;20043;-86
2021/07/23 03:39:06;;;;;;;15.65;5.80;;;;;;;;;;5095218;28;20027;-84
2021/07/23 03:41:34;;;;;;;13.32;6.18;;;;;;;;;;5093872;28;20115;-86
2021/07/23 03:44:01;;;;;;;8.82;5.00;;;;;;;;;;5092800;28;20032;-85
2021/07/23 03:46:27;;;;;;;11.88;5.93;;;;;;;;;;5095759;28;20027;-86
2021/07/23 03:48:56;;;;;;;10.68;5.13;;;;;;;;;;5094059;28;20480;-86
2021/07/23 03:51:22;;;;;;;14.60;6.38;;;;;;;;;;5094308;28;20030;-85
2021/07/23 03:53:48;;;;;;;9.40;5.50;;;;;;;;;;5093874;28;20369;-86
2021/07/23 03:56:15;;;;;;;12.52;5.35;;;;;;;;;;5095060;28;20028;-85
2021/07/23 03:58:41;;;;;;;10.55;5.70;;;;;;;;;;5097447;28;20043;-85
2021/07/23 04:01:07;;;;;;;11.25;6.15;;;;;;;;;;5099451;28;20024;-86
2021/07/23 04:03:34;;;;;;;11.88;5.57;;;;;;;;;;5093914;28;20498;-86
2021/07/23 04:06:00;;;;;;;16.08;5.28;;;;;;;;;;5093658;28;20101;-87
2021/07/23 04:08:27;;;;;;;11.38;5.78;;;;;;;;;;5095211;28;20103;-87
2021/07/23 04:10:53;;;;;;;10.93;5.68;;;;;;;;;;5095255;28;20024;-86
2021/07/23 04:13:20;;;;;;;10.45;5.82;;;;;;;;;;5093444;28;20024;-85
2021/07/23 04:15:47;;;;;;;17.48;5.70;;;;;;;;;;5093072;28;20032;-85
2021/07/23 04:18:15;;;;;;;8.20;5.25;;;;;;;;;;5094266;28;20028;-85
2021/07/23 04:20:42;;;;;;;13.07;5.85;;;;;;;;;;5093168;28;20122;-87
2021/07/23 04:23:08;;;;;;;8.82;5.70;;;;;;;;;;5094455;28;20059;-87
2021/07/23 04:25:38;;;;;;;11.43;5.75;;;;;;;;;;5094906;28;20038;-86
2021/07/23 04:28:05;;;;;;;11.45;5.93;;;;;;;;;;5093712;28;20032;-87
2021/07/23 04:30:32;;;;;;;10.45;5.35;;;;;;;;;;5094589;28;20461;-86
2021/07/23 04:32:58;;;;;;;7.30;4.63;;;;;;;;;;5093441;28;20024;-87
2021/07/23 04:35:24;;;;;;;7.43;3.88;;;;;;;;;;5083822;28;20073;-87
2021/07/23 04:37:51;;;;;;;6.32;3.30;;;;;;;;;;5012060;28;20041;-87
2021/07/23 04:40:17;;;;;;;9.38;3.53;;;;;;;;;;5079737;28;20018;-89
2021/07/23 04:42:43;;;;;;;7.70;4.00;;;;;;;;;;5011564;28;20471;-82
2021/07/23 04:45:10;;;;;;;10.13;4.13;;;;;;;;;;5011379;28;20050;-85
2021/07/23 04:47:36;;;;;;;7.88;4.35;;;;;;;;;;5079635;28;20037;-84
2021/07/23 04:50:02;;;;;;;7.55;3.78;;;;;;;;;;5079682;28;20378;-86
2021/07/23 04:52:29;;;;;;;8.68;3.60;;;;;;;;;;5079740;28;20030;-87
2021/07/23 04:54:56;;;;;;;7.65;3.70;;;;;;;;;;5011206;28;20030;-86
2021/07/23 04:57:29;;;;;;;12.43;3.65;;;;;;;;;;5081441;28;20038;-86
2021/07/23 04:59:56;;;;;;;9.65;3.47;;;;;;;;;;5082738;28;20037;-86
2021/07/23 05:02:23;;;;;;;10.07;3.47;;;;;;;;;;5082372;28;20520;-87
2021/07/23 05:04:50;;;;;;;7.13;3.75;;;;;;;;;;5014735;28;20057;-85
2021/07/23 05:07:16;;;;;;;8.68;3.30;;;;;;;;;;5014915;28;20055;-85
2021/07/23 05:09:42;;;;;;;6.90;3.53;;;;;;;;;;5082855;28;20022;-86
2021/07/23 05:12:08;;;;;;;5.10;3.10;;;;;;;;;;5082611;28;20030;-87
2021/07/23 05:14:35;;;;;;;6.28;3.13;;;;;;;;;;5082581;28;20064;-86
2021/07/23 05:17:01;;;;;;;6.13;3.70;;;;;;;;;;5082053;28;20040;-84
2021/07/23 05:19:27;;;;;;;6.80;3.40;;;;;;;;;;5082773;28;20037;-85
2021/07/23 05:21:54;;;;;;;5.80;3.22;;;;;;;;;;5082317;28;20026;-85
2021/07/23 05:24:20;;;;;;;7.90;3.88;;;;;;;;;;5082286;28;20390;-84
2021/07/23 05:26:46;;;;;;;6.55;3.30;;;;;;;;;;5014517;28;20029;-86
2021/07/23 05:29:12;;;;;;;9.20;3.47;;;;;;;;;;5014095;28;20124;-83
2021/07/23 05:31:39;;;;;;;6.40;3.35;;;;;;;;;;5082107;28;20030;-84
2021/07/23 05:34:05;;;;;;;5.88;3.53;;;;;;;;;;5082213;28;20061;-85
2021/07/23 05:36:31;;;;;;;8.15;3.40;;;;;;;;;;5096315;28;20408;-85
2021/07/23 05:38:58;;;;;;;5.78;3.42;;;;;;;;;;5096214;28;20548;-85
2021/07/23 05:41:24;;;;;;;7.03;3.72;;;;;;;;;;5096023;28;20030;-85
2021/07/23 05:43:50;;;;;;;7.25;3.63;;;;;;;;;;5096860;28;20050;-87
2021/07/23 05:46:16;;;;;;;4.90;3.30;;;;;;;;;;5095716;28;20039;-84
2021/07/23 05:48:42;;;;;;;7.13;3.75;;;;;;;;;;5096107;28;20024;-87
2021/07/23 05:51:11;;;;;;;9.85;3.45;;;;;;;;;;5098166;28;20132;-85
2021/07/23 05:53:37;;;;;;;6.32;3.88;;;;;;;;;;5096251;28;20063;-86
2021/07/23 05:56:03;;;;;;;6.90;3.67;;;;;;;;;;5095396;28;20032;-84
2021/07/23 05:58:30;;;;;;;6.60;3.35;;;;;;;;;;5095897;28;20044;-85
2021/07/23 06:00:57;;;;;;;5.65;3.47;;;;;;;;;;5096377;28;20095;-85
2021/07/23 06:03:23;;;;;;;6.70;3.40;;;;;;;;;;5094812;28;20028;-86
2021/07/23 06:05:50;;;;;;;9.73;3.63;;;;;;;;;;5095441;28;20073;-86
2021/07/23 06:08:16;;;;;;;9.93;3.58;;;;;;;;;;5095314;28;20024;-86
2021/07/23 06:10:42;;;;;;;12.88;3.42;;;;;;;;;;5095607;28;20479;-86
2021/07/23 06:13:08;;;;;;;8.38;3.92;;;;;;;;;;5096573;28;20024;-85
2021/07/23 06:15:35;;;;;;;6.90;4.10;;;;;;;;;;5096608;28;20077;-83
2021/07/23 06:18:02;;;;;;;7.82;3.70;;;;;;;;;;5096272;28;20032;-83
2021/07/23 06:20:28;;;;;;;6.38;3.72;;;;;;;;;;5095809;28;20460;-87
2021/07/23 06:22:55;;;;;;;5.13;3.63;;;;;;;;;;5095676;28;20024;-87
2021/07/23 06:25:21;;;;;;;8.07;3.90;;;;;;;;;;5095463;28;20024;-83
2021/07/23 06:27:48;;;;;;;9.80;3.88;;;;;;;;;;5094462;28;20036;-85
2021/07/23 06:30:17;;;;;;;5.70;3.45;;;;;;;;;;5094408;28;20023;-86
2021/07/23 06:32:44;;;;;;;7.40;3.80;;;;;;;;;;5095304;28;20032;-85
2021/07/23 06:35:10;;;;;;;8.52;4.20;;;;;;;;;;5093079;28;20031;-88
2021/07/23 06:37:36;;;;;;;6.68;3.90;;;;;;;;;;5080766;28;20034;-87
2021/07/23 06:40:03;;;;;;;5.75;3.50;;;;;;;;;;5081666;28;20018;-85
2021/07/23 06:42:29;;;;;;;6.00;3.65;;;;;;;;;;5014491;28;20430;-85
2021/07/23 06:44:55;;;;;;;7.78;4.07;;;;;;;;;;5080645;28;20030;-85
2021/07/23 06:47:21;;;;;;;5.30;3.42;;;;;;;;;;5081261;28;20056;-85
2021/07/23 06:49:48;;;;;;;5.78;3.40;;;;;;;;;;5013116;28;20075;-86
2021/07/23 06:52:14;;;;;;;7.65;3.85;;;;;;;;;;5081344;28;20061;-84
2021/07/23 06:54:40;;;;;;;6.30;3.72;;;;;;;;;;5080884;28;20013;-87
2021/07/23 06:57:06;;;;;;;6.10;4.03;;;;;;;;;;5080796;28;20034;-87
2021/07/23 06:59:36;;;;;;;7.82;3.88;;;;;;;;;;5079797;28;20025;-85
2021/07/23 07:02:02;;;;;;;5.07;3.53;;;;;;;;;;5080244;28;20061;-87
2021/07/23 07:04:29;;;;;;;8.30;3.50;;;;;;;;;;5080762;28;20033;-85
2021/07/23 07:06:55;;;;;;;8.45;4.03;;;;;;;;;;5013237;28;20057;-86
2021/07/23 07:09:25;;;;;;;4.78;3.13;;;;;;;;;;5081041;28;20105;-87
2021/07/23 07:11:51;;;;;;;5.43;3.33;;;;;;;;;;5013443;28;20074;-87
2021/07/23 07:14:18;;;;;;;6.50;3.90;;;;;;;;;;5080077;28;20022;-87
2021/07/23 07:16:44;;;;;;;9.80;4.13;;;;;;;;;;5080594;28;20061;-87
2021/07/23 07:19:10;;;;;;;5.97;3.60;;;;;;;;;;5079660;28;20036;-84
2021/07/23 07:21:37;;;;;;;6.20;3.80;;;;;;;;;;5013471;28;20026;-85
2021/07/23 07:24:04;;;;;;;8.10;3.97;;;;;;;;;;5012711;28;20058;-85
2021/07/23 07:26:30;;;;;;;7.57;3.95;;;;;;;;;;5080755;28;20492;-87
2021/07/23 07:28:56;;;;;;;6.95;3.83;;;;;;;;;;5079350;28;20030;-85
2021/07/23 07:31:23;;;;;;;8.63;3.90;;;;;;;;;;5079147;28;20021;-84
2021/07/23 07:33:49;;;;;;;7.50;4.22;;;;;;;;;;5079832;28;20063;-83
2021/07/23 07:36:18;;;;;;;6.85;3.83;;;;;;;;;;5079418;28;20042;-85
2021/07/23 07:38:46;;;;;;;10.95;3.88;;;;;;;;;;5079452;28;20079;-86
2021/07/23 07:41:19;;;;;;;6.53;4.00;;;;;;;;;;5080377;28;20091;-84
2021/07/23 07:43:45;;;;;;;6.22;3.65;;;;;;;;;;5079921;28;20501;-86
2021/07/23 07:46:11;;;;;;;7.05;3.45;;;;;;;;;;5079738;28;20033;-85
2021/07/23 07:48:37;;;;;;;6.40;4.00;;;;;;;;;;5079746;28;20038;-84
2021/07/23 07:51:03;;;;;;;7.88;4.25;;;;;;;;;;5079752;28;20103;-86
2021/07/23 07:53:30;;;;;;;6.57;3.63;;;;;;;;;;5012399;28;20041;-85
2021/07/23 07:55:57;;;;;;;9.40;4.10;;;;;;;;;;5013125;28;20070;-86
2021/07/23 07:58:23;;;;;;;7.57;4.28;;;;;;;;;;5079931;28;20090;-85
2021/07/23 08:00:49;;;;;;;9.00;3.95;;;;;;;;;;5078975;28;20102;-85
2021/07/23 08:03:15;;;;;;;7.88;4.15;;;;;;;;;;5079888;28;20041;-85
2021/07/23 08:05:41;;;;;;;7.88;4.20;;;;;;;;;;5079417;28;20046;-87
2021/07/23 08:08:09;;;;;;;8.40;4.07;;;;;;;;;;5079733;28;20122;-86
2021/07/23 08:10:36;;;;;;;6.95;3.78;;;;;;;;;;5079650;28;20113;-84
2021/07/23 08:13:07;;;;;;;9.55;4.32;;;;;;;;;;5079722;28;20049;-85
2021/07/23 08:15:36;;;;;;;8.02;4.35;;;;;;;;;;5079706;28;20030;-86
2021/07/23 08:18:03;;;;;;;7.53;3.80;;;;;;;;;;5079302;28;20033;-85
2021/07/23 08:20:29;;;;;;;27.33;4.70;;;;;;;;;;5080045;28;20474;-84
2021/07/23 08:22:56;;;;;;;16.25;4.50;;;;;;;;;;5079849;28;20485;-83
2021/07/23 08:25:22;;;;;;;6.25;3.70;;;;;;;;;;5079394;28;20126;-87
2021/07/23 08:27:48;;;;;;;6.45;3.80;;;;;;;;;;5079786;28;20026;-86
2021/07/23 08:30:14;;;;;;;9.25;3.50;;;;;;;;;;5081978;28;20022;-87
2021/07/23 08:32:44;;;;;;;6.97;3.20;;;;;;;;;;5082037;28;20038;-88
2021/07/23 08:35:11;;;;;;;15.95;4.05;;;;;;;;;;5082867;28;20030;-87
2021/07/23 08:37:37;;;;;;;30.70;5.55;;;;;;;;;;5083100;28;20049;-86
2021/07/23 08:40:06;;;;;;;7.15;4.28;;;;;;;;;;5083560;28;20029;-86
2021/07/23 08:42:33;;;;;;;9.68;3.65;;;;;;;;;;5080895;28;20022;-86
2021/07/23 08:45:00;;;;;;;5.68;3.50;;;;;;;;;;5015244;28;20112;-87
2021/07/23 08:47:27;;;;;;;6.22;3.78;;;;;;;;;;5079934;28;20036;-86
2021/07/23 08:49:53;;;;;;;15.68;4.10;;;;;;;;;;5014386;28;20378;-85
2021/07/23 08:52:38;;;;;;;7.35;3.90;;;;;;;;;;5083436;28;20029;-86
2021/07/23 08:55:05;;;;;;;7.53;4.05;;;;;;;;;;5083220;28;20493;-85
2021/07/23 08:57:32;;;;;;;5.75;3.75;;;;;;;;;;5015037;28;20492;-85
2021/07/23 08:59:58;;;;;;;7.30;3.70;;;;;;;;;;5015299;28;20033;-86
2021/07/23 09:02:24;;;;;;;9.15;3.67;;;;;;;;;;5084636;28;20087;-86
2021/07/23 09:04:53;;;;;;;5.97;3.63;;;;;;;;;;5083024;28;20078;-86
2021/07/23 09:07:23;;;;;;;6.70;3.50;;;;;;;;;;5082913;28;20057;-84
2021/07/23 09:09:56;;;;;;;7.05;3.80;;;;;;;;;;5082404;28;20075;-86
2021/07/23 09:12:22;;;;;;;6.72;3.20;;;;;;;;;;5082843;28;20026;-84
2021/07/23 09:14:49;;;;;;;7.13;3.63;;;;;;;;;;5082442;28;20030;-84
2021/07/23 09:17:15;;;;;;;7.68;3.70;;;;;;;;;;5014809;28;20030;-85
2021/07/23 09:19:41;;;;;;;9.77;4.22;;;;;;;;;;5014639;28;20026;-84
2021/07/23 09:22:07;;;;;;;6.30;3.83;;;;;;;;;;5082844;28;20071;-84
2021/07/23 09:24:51;;;;;;;7.43;4.07;;;;;;;;;;5081527;28;20470;-85
2021/07/23 09:27:36;;;;;;;16.67;3.72;;;;;;;;;;5082028;28;20029;-86
2021/07/23 09:30:05;;;;;;;16.30;4.95;;;;;;;;;;5082557;28;20069;-86
2021/07/23 09:32:31;;;;;;;13.23;3.22;;;;;;;;;;5081802;28;20470;-83
2021/07/23 09:35:07;;;;;;;7.97;3.78;;;;;;;;;;5082573;28;20037;-85
2021/07/23 09:37:33;;;;;;;8.32;3.38;;;;;;;;;;5096364;28;20032;-84
2021/07/23 09:40:00;;;;;;;6.43;3.17;;;;;;;;;;5096307;28;20027;-84
2021/07/23 09:42:29;;;;;;;18.10;4.22;;;;;;;;;;5095553;28;20606;-83
2021/07/23 09:45:04;;;;;;;1090.88;106.20;;;;;;;;;;5097400;28;20494;-84
2021/07/23 09:47:30;;;;;;;13.77;3.17;;;;;;;;;;5096177;28;20051;-83
2021/07/23 09:49:56;;;;;;;8.43;3.25;;;;;;;;;;5095033;28;20487;-82
2021/07/23 09:52:22;;;;;;;5.13;2.88;;;;;;;;;;5095208;28;20067;-87
2021/07/23 09:54:49;;;;;;;6.65;3.08;;;;;;;;;;5095862;28;20024;-85
2021/07/23 09:57:17;;;;;;;8.48;3.22;;;;;;;;;;5094969;28;20070;-81
2021/07/23 09:59:50;;;;;;;5.40;3.20;;;;;;;;;;5092762;28;20089;-80
2021/07/23 10:02:18;;;;;;;4.95;3.20;;;;;;;;;;5109080;28;20491;-84
2021/07/23 10:05:07;;;;;;;5.63;3.22;;;;;;;;;;5075736;28;20564;-82
2021/07/23 10:07:46;;;;;;;5.28;3.15;;;;;;;;;;5093772;28;20028;-81
2021/07/23 10:10:13;;;;;;;6.47;3.53;;;;;;;;;;5092010;28;20025;-80
2021/07/23 10:12:41;;;;;;;9.52;4.00;;;;;;;;;;5091923;28;20052;-81
2021/07/23 10:15:07;;;;;;;6.13;3.60;;;;;;;;;;5091524;28;20028;-81
2021/07/23 10:17:35;;;;;;;5.75;3.53;;;;;;;;;;5075735;28;20469;-86
2021/07/23 10:20:03;;;;;;;6.50;3.50;;;;;;;;;;5075261;28;20544;-81
2021/07/23 10:22:29;;;;;;;6.90;3.55;;;;;;;;;;5075061;28;20163;-81
2021/07/23 10:24:56;;;;;;;5.38;2.80;;;;;;;;;;5090982;28;20025;-81
2021/07/23 10:27:24;;;;;;;6.57;3.38;;;;;;;;;;5075015;28;20024;-81
2021/07/23 10:29:51;;;;;;;5.43;3.05;;;;;;;;;;5076217;28;20153;-83
2021/07/23 10:32:26;;;;;;;6.20;3.85;;;;;;;;;;5076078;28;20033;-81
2021/07/23 10:34:55;;;;;;;5.25;3.40;;;;;;;;;;5091166;28;20122;-85
2021/07/23 10:37:31;;;;;;;5.72;3.10;;;;;;;;;;5074016;28;20051;-81
2021/07/23 10:40:09;;;;;;;8.80;3.30;;;;;;;;;;4973346;28;20034;-80
2021/07/23 10:42:42;;;;;;;6.55;3.55;;;;;;;;;;5073442;28;20104;-81
2021/07/23 10:45:14;;;;;;;5.93;3.42;;;;;;;;;;5073543;28;20106;-80
2021/07/23 10:47:47;;;;;;;5.68;3.20;;;;;;;;;;5073424;28;20030;-81
2021/07/23 10:50:16;;;;;;;6.22;3.22;;;;;;;;;;5073633;28;20027;-83
2021/07/23 10:52:54;;;;;;;5.15;3.08;;;;;;;;;;5073601;28;20031;-80
2021/07/23 10:55:44;;;;;;;8.68;3.17;;;;;;;;;;5072823;28;20124;-80
2021/07/23 10:58:11;;;;;;;9.13;3.13;;;;;;;;;;5073446;28;20034;-80
2021/07/23 11:01:02;;;;;;;6.22;3.38;;;;;;;;;;5073391;28;20034;-80
2021/07/23 11:03:39;;;;;;;5.28;3.33;;;;;;;;;;4972974;28;20023;-83
2021/07/23 11:06:25;;;;;;;7.10;3.15;;;;;;;;;;4973098;28;20026;-80
2021/07/23 11:08:55;;;;;;;8.25;3.55;;;;;;;;;;4972913;28;20047;-80
2021/07/23 11:11:26;;;;;;;8.60;3.50;;;;;;;;;;4983634;28;20042;-83
2021/07/23 11:13:52;;;;;;;5.93;3.88;;;;;;;;;;4973096;28;20023;-79
2021/07/23 11:16:29;;;;;;;12.30;3.83;;;;;;;;;;4973141;28;20391;-81
2021/07/23 11:18:56;;;;;;;5.60;3.53;;;;;;;;;;5073556;28;20034;-82
2021/07/23 11:21:26;;;;;;;6.30;3.83;;;;;;;;;;5073103;28;20033;-80
2021/07/23 11:23:52;;;;;;;9.65;3.72;;;;;;;;;;4971783;28;20475;-81
2021/07/23 11:26:24;;;;;;;9.77;3.80;;;;;;;;;;4973246;28;20098;-82
2021/07/23 11:28:51;;;;;;;8.90;3.58;;;;;;;;;;5073296;28;20031;-83
2021/07/23 11:31:31;;;;;;;7.78;3.83;;;;;;;;;;5071582;28;20047;-80
2021/07/23 11:33:58;;;;;;;6.40;3.75;;;;;;;;;;5075009;28;20038;-81
2021/07/23 11:36:35;;;;;;;7.75;4.03;;;;;;;;;;5073071;28;20100;-83
2021/07/23 11:39:02;;;;;;;6.28;3.53;;;;;;;;;;5073125;28;20035;-81
2021/07/23 11:41:28;;;;;;;7.15;3.92;;;;;;;;;;5072517;28;20026;-81
2021/07/23 11:44:10;;;;;;;6.10;3.60;;;;;;;;;;4973088;28;20088;-82
2021/07/23 11:46:36;;;;;;;8.15;4.15;;;;;;;;;;4972384;28;20023;-82
2021/07/23 11:49:03;;;;;;;8.15;4.00;;;;;;;;;;4972203;28;20380;-82
2021/07/23 11:51:40;;;;;;;6.15;4.00;;;;;;;;;;5072152;28;20437;-84
2021/07/23 11:54:10;;;;;;;6.43;3.80;;;;;;;;;;5072118;28;20547;-82
2021/07/23 11:56:37;;;;;;;7.18;4.25;;;;;;;;;;4972491;28;20030;-80
2021/07/23 11:59:03;;;;;;;7.45;4.47;;;;;;;;;;5071643;28;20065;-82
2021/07/23 12:01:40;;;;;;;9.25;4.05;;;;;;;;;;4972552;28;20023;-80
2021/07/23 12:04:07;;;;;;;9.00;3.95;;;;;;;;;;5072193;28;20121;-79
2021/07/23 12:06:33;;;;;;;9.75;4.10;;;;;;;;;;5075160;28;20387;-81
2021/07/23 12:09:04;;;;;;;6.95;3.80;;;;;;;;;;4975226;28;20034;-81
2021/07/23 12:11:31;;;;;;;6.75;3.70;;;;;;;;;;4975137;28;20027;-81
2021/07/23 12:13:58;;;;;;;7.13;3.78;;;;;;;;;;5076348;28;20058;-85
2021/07/23 12:16:24;;;;;;;9.32;4.13;;;;;;;;;;5075875;28;20426;-80
2021/07/23 12:19:08;;;;;;;16.40;4.78;;;;;;;;;;5076279;28;20093;-81
2021/07/23 12:21:34;;;;;;;7.28;4.15;;;;;;;;;;4975349;28;20052;-80
2021/07/23 12:24:04;;;;;;;8.43;4.13;;;;;;;;;;5075795;28;20031;-84
2021/07/23 12:26:34;;;;;;;7.20;4.03;;;;;;;;;;5075930;28;20462;-81
2021/07/23 12:29:01;;;;;;;6.13;3.88;;;;;;;;;;5075764;28;20038;-79
2021/07/23 12:31:28;;;;;;;8.75;4.00;;;;;;;;;;5076003;28;20034;-80
2021/07/23 12:34:00;;;;;;;6.38;3.45;;;;;;;;;;5075769;28;20027;-81
2021/07/23 12:36:27;;;;;;;6.60;3.92;;;;;;;;;;5075714;28;20399;-81
2021/07/23 12:39:00;;;;;;;7.78;3.47;;;;;;;;;;5075570;28;20100;-81
2021/07/23 12:41:26;;;;;;;10.20;3.80;;;;;;;;;;5075545;28;20023;-80
2021/07/23 12:44:05;;;;;;;9.05;3.63;;;;;;;;;;5075944;28;20027;-80
2021/07/23 12:46:32;;;;;;;5.60;3.38;;;;;;;;;;5075710;28;20153;-80
2021/07/23 12:49:08;;;;;;;8.95;3.75;;;;;;;;;;5075826;28;20038;-79
2021/07/23 12:51:34;;;;;;;6.13;3.50;;;;;;;;;;4974752;28;20023;-80
2021/07/23 12:54:01;;;;;;;6.97;3.55;;;;;;;;;;4974683;28;20026;-81
2021/07/23 12:56:31;;;;;;;8.40;3.78;;;;;;;;;;5075252;28;20029;-83
2021/07/23 12:58:58;;;;;;;6.05;3.53;;;;;;;;;;5075693;28;20074;-80
2021/07/23 13:01:24;;;;;;;6.68;3.50;;;;;;;;;;5075978;28;20027;-79
2021/07/23 13:03:51;;;;;;;8.07;3.70;;;;;;;;;;5075780;28;20038;-80
2021/07/23 13:06:19;;;;;;;8.52;3.78;;;;;;;;;;4975032;28;20468;-80
2021/07/23 13:08:46;;;;;;;7.60;3.35;;;;;;;;;;5075144;28;20026;-80
2021/07/23 13:11:18;;;;;;;5.97;3.60;;;;;;;;;;5075229;28;20031;-80
2021/07/23 13:13:45;;;;;;;6.55;3.33;;;;;;;;;;5075161;28;20027;-83
2021/07/23 13:16:12;;;;;;;6.47;3.50;;;;;;;;;;4974125;28;20442;-80
2021/07/23 13:18:39;;;;;;;6.55;3.65;;;;;;;;;;5074399;28;20035;-81
2021/07/23 13:21:05;;;;;;;5.25;3.05;;;;;;;;;;4974323;28;20459;-83
2021/07/23 13:23:32;;;;;;;6.63;3.90;;;;;;;;;;5075242;28;20050;-80
2021/07/23 13:26:00;;;;;;;7.05;3.90;;;;;;;;;;5075728;28;20166;-81
2021/07/23 13:28:27;;;;;;;10.20;3.55;;;;;;;;;;4974640;28;20034;-80
2021/07/23 13:30:54;;;;;;;8.05;3.60;;;;;;;;;;4974055;28;20027;-80
2021/07/23 13:33:20;;;;;;;6.78;3.20;;;;;;;;;;4974594;28;20037;-80
2021/07/23 13:35:49;;;;;;;6.80;3.60;;;;;;;;;;5074427;28;20046;-80
2021/07/23 13:38:18;;;;;;;6.28;3.50;;;;;;;;;;5074465;28;20050;-80
2021/07/23 13:40:47;;;;;;;5.65;3.25;;;;;;;;;;5074687;28;20030;-80
2021/07/23 13:43:14;;;;;;;7.10;3.15;;;;;;;;;;5074702;28;20054;-82
2021/07/23 13:45:42;;;;;;;8.52;3.45;;;;;;;;;;5075722;28;20037;-79
2021/07/23 13:48:08;;;;;;;6.40;3.55;;;;;;;;;;5074201;28;20379;-81
2021/07/23 13:50:35;;;;;;;6.20;3.30;;;;;;;;;;4974372;28;20034;-80
2021/07/23 13:53:01;;;;;;;7.50;4.13;;;;;;;;;;4973740;28;20050;-80
2021/07/23 13:55:28;;;;;;;4.97;2.92;;;;;;;;;;5074390;28;20039;-81
2021/07/23 13:57:54;;;;;;;8.00;3.50;;;;;;;;;;5073995;28;20502;-80
2021/07/23 14:00:21;;;;;;;10.15;3.60;;;;;;;;;;4973590;28;20023;-80
2021/07/23 14:02:47;;;;;;;7.18;3.55;;;;;;;;;;5074504;28;20467;-80
2021/07/23 14:05:14;;;;;;;6.22;3.33;;;;;;;;;;5075131;28;20072;-80
2021/07/23 14:07:40;;;;;;;6.55;3.63;;;;;;;;;;4974059;28;20034;-81
2021/07/23 14:10:08;;;;;;;10.23;3.97;;;;;;;;;;4974031;28;20456;-81
2021/07/23 14:12:35;;;;;;;6.57;3.63;;;;;;;;;;5074030;28;20109;-81
2021/07/23 14:15:02;;;;;;;7.82;3.88;;;;;;;;;;4973426;28;20031;-85
2021/07/23 14:17:28;;;;;;;9.15;3.95;;;;;;;;;;4973229;28;20030;-82
2021/07/23 14:19:55;;;;;;;11.73;3.80;;;;;;;;;;4973352;28;20030;-80
2021/07/23 14:22:21;;;;;;;6.47;3.70;;;;;;;;;;4973811;28;20050;-82
2021/07/23 14:24:48;;;;;;;6.55;3.63;;;;;;;;;;4973742;28;20364;-81
2021/07/23 14:27:14;;;;;;;6.38;3.58;;;;;;;;;;4973183;28;20030;-82
2021/07/23 14:29:40;;;;;;;6.57;3.22;;;;;;;;;;4973397;28;20041;-81
2021/07/23 14:32:07;;;;;;;8.52;3.80;;;;;;;;;;4973650;28;20023;-81
2021/07/23 14:34:34;;;;;;;6.03;3.60;;;;;;;;;;5073261;28;20031;-81
2021/07/23 14:37:01;;;;;;;8.50;4.25;;;;;;;;;;5073010;28;20046;-80
2021/07/23 14:39:28;;;;;;;7.25;3.83;;;;;;;;;;5074557;28;20360;-80
2021/07/23 14:41:54;;;;;;;6.80;3.47;;;;;;;;;;4972950;28;20376;-80
2021/07/23 14:44:21;;;;;;;9.52;3.42;;;;;;;;;;4973427;28;20077;-81